Extreme weather reports worldwide

Rain

Station
 
Location
 
Name
 
Wind
Knots
Gust
Knots
Vis
SM
Temp/Dew
C
Baro
inHg
METAR
 
ETHA Altenstadt, DE Altenstadt Army Airfield 35 52 1.68 1/1 29.85 ETHA 301720Z 26035G52KT 2700 -SNRA BLSN BKN016 01/01 Q1011 BLACKYLO
ETHN Niederstetten, DE Niederstetten Army Air Base 29 44 4.35 1/1 29.76 ETHN 301720Z 26029G44KT 7000 R25/0300N -RASN BKN003 OVC008 01/01 Q1008 YLO YLO
YGJ RJOH Yonago, JP Yonago Kitaro Airport / JASDF Miho Air Base 26 39 6.21 10/5 29.68 RJOH 301800Z 26026G39KT 9999 -SHRA FEW015 BKN025 BKN030 10/05 Q1005
JER EGJJ Saint Helier, JE Jersey Airport 26 37 6.21 11/10 29.94 EGJJ 301750Z 25026G37KT 9999 -RA FEW003 BKN006 11/10 Q1014 RERA
HYG PAHY Hydaburg, US Hydaburg Seaplane Base 26 36 1.5 8/7 29.00 PAHY 301756Z AUTO 11026G36KT 1 1/2SM RA BR BKN019 OVC026 09/08 A2900 RMK AO2 SLP817 6//// T00890078 10089 20067 56063 PNO $

Station
 
Location
 
Name
 
Wind
Knots
Gust
Knots
Vis
SM
Temp/Dew
C
Baro
inHg
METAR
 
CJU RKPC Jeju City, KR Jeju International Airport 21 36 6.21 8/2 30.15 RKPC 301800Z 33021G36KT 9999 -SHRA BKN035 08/02 Q1021 WS ALL RWY NOSIG
CPR KCPR Casper, US Casper-Natrona County International Airport 27 35 10 7/-2 30.10 KCPR 301753Z 22027G35KT 10SM -RA CLR 07/M02 A3010 RMK AO2 PK WND 21035/1752 RAB50 SLP189 P0000 60000 T00721022 10072 20006 56032
KTN PAKT Ketchikan, US Ketchikan International Airport 25 35 3 7/5 29.07 PAKT 301753Z 13025G35KT 3SM RA BR OVC016 07/06 A2907 RMK AO2 PK WND 13038/1703 SLP846 HARBOR WIND 09020KT ROOF WIND 15040G50KT 6//// T00720056 10072 20061 56073 PNO $
CTS RJCC Chitose / Tomakomai, JP New Chitose Airport 25 35 6.21 13/12 29.53 RJCC 301800Z 15025G35KT 9999 -SHRA FEW008 BKN010 BKN050 13/12 Q1000 RMK 1ST008 5ST010 7CU050 A2955 P/FR
YYT CYYT St. John's, CA St. John's International Airport 24 35 2.5 12/12 29.29 CYYT 301800Z 19024G35KT 2 1/2SM -RA BR OVC005 12/12 A2929 RMK ST8 SLP923 DENSITY ALT 1000FT
URFF 23 33 2.92 2/2 29.29 URFF 301800Z 02012G17MPS 4700 -SHRA BKN004 OVC017CB 02/02 Q0992 R01/290495 TEMPO 1100 SHRA BR BKN002 BKN020CB RMK OBST OBSC
KUV RKJK Kunsan, KR Kunsan Air Base 22 33 10 3/-1 30.05 RKJK 301756Z 32022G33KT 10SM -RA FEW020 SCT035 BKN045 BKN060 04/M01 A3005 RMK AO2A PK WND 33039/46 RAE1656DZB1656E01RAB01E28RAB43 SLP181 P0000 60001 T00381014 10065 20027 52013 $
GCI EGJB Saint Peter Port, GG Guernsey Airport 22 32 6.21 11/10 29.94 EGJB 301750Z 25022G32KT 9999 -RA FEW007 BKN012 11/10 Q1014
NRT RJAA Tokyo / Narita, JP Narita International Airport 21 31 6.21 17/15 29.65 RJAA 301800Z 16021G31KT 9999 -SHRA FEW015 BKN030 BKN080 17/15 Q1004 TEMPO 3000 SHRA BR FEW005 BKN008 RMK 1CU015 5CU030 7AC080 A2966 P/FR
FKB EDSB Baden-Baden, DE Karlsruhe Baden-Baden Airport 20 31 1.86 3/2 29.94 EDSB 301750Z 21020G31KT 3000 RA BR FEW011 OVC021 03/02 Q1014
EIME Baldonnel, IE Casement Air Base 20 30 4.35 10/9 29.53 EIME 301800Z 22020G30KT 7000 RA FEW009 BKN016 BKN031 10/09 Q1000 RERA
YPR CYPR Prince Rupert, CA Prince Rupert Airport 19 30 9 9/7 29.24 CYPR 301805Z AUTO 15019G30KT 9SM -RA BKN023 OVC030 09/07 A2924 RMK PRESRR SLP903 DENSITY ALT 300FT
YZT CYZT Port Hardy, CA Port Hardy Airport 21 29 6 8/7 29.80 CYZT 301800Z 12021G29KT 6SM -RA BR SCT010 BKN020 OVC038 08/07 A2980 RMK SF3SC3SC2 SLP095
ESB LTAC Ankara, TR Esenboğa International Airport 19 29 6.21 4/2 29.73 LTAC 301750Z 27019G29KT 9999 -SHRA FEW009 SCT025 BKN080 04/02 Q1007 NOSIG RMK RWY21L 25020KT RWY03L 27018G32KT 230V290 RWY21R /////KT
KYA LTAN Konya, TR Konya Airport 16 29 6.21 11/5 29.73 LTAN 301750Z 27016G29KT 9999 -RA SCT035 BKN100 11/05 Q1007 NOSIG
RJTE Tateyama, JP JMSDF Tateyama Air Base 12 28 3.11 18/16 29.68 RJTE 301746Z 17012G28KT 120V220 5000 -SHRA BR FEW008 BKN012 BKN030 18/16 Q1005 RMK 1ST008 5CU012 7CU030 A2971 P/FR
YQQ CYQQ Comox, CA Comox Airport 19 27 15 9/7 30.00 CYQQ 301800Z 14019G27KT 15SM -SHRA FEW015 BKN031 OVC045 09/07 A3000 RMK SC1SC5SC2 PCPN VRY LGT SLP160
RJTL Matsudo, JP JMSDF Shimofusa Air Base 17 27 1.93 17/15 29.65 RJTL 301801Z 17017G27KT 3100 R19/1000VP1800D SHRA BR BKN015 BKN050 17/15 Q1004 RMK 5CU015 7SC050 A2965 R1600
NUE EDDN Nuremberg, DE Nuremberg Airport 17 27 6.21 3/1 29.76 EDDN 301750Z 25017G27KT 9999 -RA BKN014 03/01 Q1008 TEMPO 25020G35KT
CGN EDDK Cologne, DE Cologne Bonn Airport 17 27 6.21 9/8 29.76 EDDK 301750Z 27017G27KT 9999 -RADZ FEW006 BKN009 09/08 Q1008 BECMG 27011KT
FLD KFLD Fond du Lac, US Fond du Lac County Airport 15 26 10 8/-2 29.98 KFLD 301753Z AUTO 32015G26KT 10SM -RA CLR 09/M03 A2998 RMK AO2 PK WND 31026/1735 RAB29 SLP160 P0000 60000 T00891028 10089 21011 51011
KLV LKKV Karlovy Vary, CZ Karlovy Vary International Airport 15 25 1.55 0/-1 29.56 LKKV 301811Z 26015G25KT 2500 -SNRA BR OVC004 00/M01 Q1001 RMK REG QNH 0996
FDH EDNY Friedrichshafen, DE Friedrichshafen Airport 15 25 6.21 3/1 30.03 EDNY 301750Z 25015G25KT 9999 -RA OVC016 03/01 Q1017
YAM CYAM Sault Ste Marie, CA Sault Ste Marie Airport 17 24 7 2/1 29.68 CYAM 301800Z 28017G24KT 7SM -SHRA FEW005 BKN010 BKN022 02/01 A2968 RMK CF1CU4CU2 CIG VRB 7-13 VIS N 4 /S01/ SLP063
PAE KPAE Everett, US Snohomish County (Paine Field) Airport 16 24 5 10/8 30.20 KPAE 301808Z 19016G24KT 5SM -RA BR SCT015 BKN022 OVC055 10/08 A3020 RMK AO2 PK WND 17026/1756 P0000 T01000083
YZP CYZP Sandspit, CA Sandspit Airport 15 24 9 11/10 29.25 CYZP 301802Z AUTO 20015G24KT 9SM -RA SCT041 BKN071 BKN110 OVC130 11/10 A2925 RMK SLP907 DENSITY ALT 400FT
BLI KBLI Bellingham, US Bellingham International Airport 15 24 5 10/8 30.13 KBLI 301753Z 17015G24KT 5SM -RA BR FEW009 SCT018 OVC049 11/09 A3013 RMK AO2 PK WND 16030/1725 SLP209 P0007 60046 T01060089 10117 20106 53017
ZMT CZMT Masset, CA Masset Airport 13 24 10 10/9 29.15 CZMT 301800Z 18013G24KT 160V240 10SM -RA FEW008 BKN030TCU OVC080 10/09 A2915 RMK ST2TCU3AC3 SLP874 DENSITY ALT 300FT
WAT EIWF Waterford, IE Waterford Airport 11 24 5.59 10/10 29.65 EIWF 301800Z 26011G24KT 220V300 9000 RA BKN005 10/10 Q1004 R21/1/////
ETIH DE Hohenfels Army Air Field 12 23 6.21 1/0 29.74 ETIH 301756Z AUTO 24012G23KT 9999 -RA OVC009 01/M01 A2974 RMK AO2 FZRAE07RAB07E38FZRAB38E52RAB52 SLP093 P0009 60030 T00121007 10012 20001 53009
YDF CYDF Deer Lake, CA Deer Lake Airport 16 22 6 9/9 29.06 CYDF 301800Z 23016G22KT 6SM -RA BR SCT010 OVC020 09/09 A2906 RMK SC3SC5 SLP844 DENSITY ALT 400FT
YXS CYXS Prince George, CA Prince George Airport 15 22 9 4/2 29.60 CYXS 301800Z AUTO 18015G22KT 9SM -RA BKN044 OVC060 04/02 A2960 RMK PCPN 1.0MM PAST HR SLP047
DOM TDPD Marigot, DM Douglas-Charles Airport 12 22 6.21 27/25 29.94 TDPD 301800Z 11012G22KT 9999 2000W -SHRA BKN013 BKN032 27/25 Q1014
KAWO Arlington, US Arlington Municipal Airport 14 21 10 11/9 30.20 KAWO 301756Z AUTO 15014G21KT 10SM -RA BKN021 OVC028 11/09 A3020 RMK AO2 RAE1658B24 SLP230 P0000 60000 T01110094 10128 20111 53027
LSMD Zurich, CH Dübendorf Air Base 11 21 2/0 30.09 LSMD 301750Z AUTO 26011G21KT 230V290 9999NDV -RA SCT020 OVC031 02/M00 Q1019 RMK
RJTR Sagamihara / Zama, JP Camp Zama Kastner Army Heliport 8 21 3 15/14 29.60 RJTR 301808Z AUTO 14008G21KT 3SM -RA BR FEW002 SCT017 OVC022 15/14 A2960 RMK AO2 LTG DSNT E-SE AND SW OVC V BKN SLP025
ZEL CBBC Bella Bella, CA Bella Bella (Campbell Island) Airport 13 20 3 9/8 29.60 CBBC 301811Z AUTO 17013G20KT 3SM -RA BR BKN017 OVC027 09/08 A2960 RMK SLP026
AST KAST Astoria, US Astoria Regional Airport 11 20 4 11/9 30.25 KAST 301755Z AUTO 19011G20KT 4SM -RA BR FEW020 FEW035 OVC044 12/09 A3025 RMK AO2 SLP242 P0002 60005 T01170094 10122 20117 51017
YPS CYPD Port Hawkesbury, CA Port Hawkesbury Airport 11 20 9 1/0 29.53 CYPD 301810Z AUTO 28011G20KT 9SM -RA BKN014 OVC019 01/M00 A2953 RMK SLP006
CWSW 10 20 4 4/3 29.92 CWSW 301800Z 17010G20KT 130V210 4SM -RA FEW008 BKN025 OVC045 04/03 A2992 RMK SC2SC4SC2 SLP157
UIL KUIL Quillayute, US Quillayute Airport 9 20 2.5 10/9 30.12 KUIL 301810Z AUTO 16009G20KT 2 1/2SM RA BR SCT009 OVC015 10/09 A3012 RMK AO2 P0008 T01000094
YXX CYXX Abbotsford, CA Abbotsford Airport 14 19 6 10/9 30.13 CYXX 301800Z 17014G19KT 6SM -RA SCT010 OVC045 10/09 A3013 RMK SF3SC5 SLP205
RNT KRNT Renton, US Renton Municipal Airport 11 19 7 12/10 30.22 KRNT 301811Z 19011G19KT 7SM -RA SCT014 BKN023 OVC049 12/10 A3022 RMK AO2 RAB05 P0000 T01220100
UAM PGUA Yigo, Mariana Island, GU Andersen Air Force Base 15 18 6 26/24 29.75 PGUA 301807Z 13015G18KT 6SM -RA FEW005 BKN009 OVC017 26/24 A2975 RMK AO2A SLP065 $
RMS ETAR Ramstein, DE Ramstein Air Base 13 18 4.97 4/4 29.88 ETAR 301756Z 24013G18KT 8000 -RA OVC008 05/05 A2988 RMK AO2A CIG 007 RWY08 SLP132 P0000 60001 T00480048 10048 20032 53004